sensor_id;sensor_type;location;lat;lon;timestamp;P1;durP1;ratioP1;P2;durP2;ratioP2
69207;SDS011;56321;47.662;8.878;2023-04-03T00:00:04;6.90;;;2.50;;
69207;SDS011;56321;47.662;8.878;2023-04-03T00:02:30;6.18;;;2.38;;
69207;SDS011;56321;47.662;8.878;2023-04-03T00:04:55;6.10;;;2.27;;
69207;SDS011;56321;47.662;8.878;2023-04-03T00:07:20;6.13;;;2.45;;
69207;SDS011;56321;47.662;8.878;2023-04-03T00:09:46;5.93;;;2.10;;
69207;SDS011;56321;47.662;8.878;2023-04-03T00:12:11;6.80;;;2.70;;
69207;SDS011;56321;47.662;8.878;2023-04-03T00:14:36;7.07;;;2.60;;
69207;SDS011;56321;47.662;8.878;2023-04-03T00:17:02;6.33;;;2.33;;
69207;SDS011;56321;47.662;8.878;2023-04-03T00:19:27;7.67;;;2.87;;
69207;SDS011;56321;47.662;8.878;2023-04-03T00:21:52;7.03;;;2.90;;
69207;SDS011;56321;47.662;8.878;2023-04-03T00:24:18;7.90;;;3.03;;
69207;SDS011;56321;47.662;8.878;2023-04-03T00:26:44;8.40;;;3.00;;
69207;SDS011;56321;47.662;8.878;2023-04-03T00:29:09;6.70;;;2.80;;
69207;SDS011;56321;47.662;8.878;2023-04-03T00:31:35;7.90;;;3.20;;
69207;SDS011;56321;47.662;8.878;2023-04-03T00:34:00;7.10;;;3.03;;
69207;SDS011;56321;47.662;8.878;2023-04-03T00:36:26;7.30;;;3.30;;
69207;SDS011;56321;47.662;8.878;2023-04-03T00:38:51;7.45;;;3.25;;
69207;SDS011;56321;47.662;8.878;2023-04-03T00:41:16;7.30;;;3.10;;
69207;SDS011;56321;47.662;8.878;2023-04-03T00:43:42;6.60;;;2.73;;
69207;SDS011;56321;47.662;8.878;2023-04-03T00:46:07;6.53;;;2.80;;
69207;SDS011;56321;47.662;8.878;2023-04-03T00:48:45;6.77;;;2.70;;
69207;SDS011;56321;47.662;8.878;2023-04-03T00:51:13;6.65;;;2.88;;
69207;SDS011;56321;47.662;8.878;2023-04-03T00:54:02;7.38;;;3.10;;
69207;SDS011;56321;47.662;8.878;2023-04-03T00:56:31;6.93;;;3.00;;
69207;SDS011;56321;47.662;8.878;2023-04-03T00:59:08;7.32;;;3.15;;
69207;SDS011;56321;47.662;8.878;2023-04-03T01:01:39;7.82;;;3.55;;
69207;SDS011;56321;47.662;8.878;2023-04-03T01:04:05;7.57;;;2.80;;
69207;SDS011;56321;47.662;8.878;2023-04-03T01:06:35;7.07;;;2.70;;
69207;SDS011;56321;47.662;8.878;2023-04-03T01:09:01;6.93;;;2.87;;
69207;SDS011;56321;47.662;8.878;2023-04-03T01:11:27;6.50;;;2.60;;
69207;SDS011;56321;47.662;8.878;2023-04-03T01:13:53;7.13;;;2.77;;
69207;SDS011;56321;47.662;8.878;2023-04-03T01:16:18;8.27;;;3.05;;
69207;SDS011;56321;47.662;8.878;2023-04-03T01:18:44;7.50;;;2.83;;
69207;SDS011;56321;47.662;8.878;2023-04-03T01:26:55;7.05;;;3.13;;
69207;SDS011;56321;47.662;8.878;2023-04-03T01:29:20;7.07;;;3.00;;
69207;SDS011;56321;47.662;8.878;2023-04-03T01:34:40;7.28;;;2.90;;
69207;SDS011;56321;47.662;8.878;2023-04-03T01:37:05;6.30;;;2.70;;
69207;SDS011;56321;47.662;8.878;2023-04-03T01:39:31;6.93;;;2.67;;
69207;SDS011;56321;47.662;8.878;2023-04-03T01:41:56;6.77;;;3.03;;
69207;SDS011;56321;47.662;8.878;2023-04-03T01:44:21;6.95;;;2.78;;
69207;SDS011;56321;47.662;8.878;2023-04-03T01:46:46;6.37;;;2.60;;
69207;SDS011;56321;47.662;8.878;2023-04-03T01:49:12;6.07;;;2.47;;
69207;SDS011;56321;47.662;8.878;2023-04-03T01:51:37;6.87;;;2.90;;
69207;SDS011;56321;47.662;8.878;2023-04-03T01:54:03;6.70;;;2.60;;
69207;SDS011;56321;47.662;8.878;2023-04-03T01:56:28;7.40;;;3.00;;
69207;SDS011;56321;47.662;8.878;2023-04-03T01:58:53;6.10;;;2.60;;
69207;SDS011;56321;47.662;8.878;2023-04-03T02:01:18;6.75;;;2.47;;
69207;SDS011;56321;47.662;8.878;2023-04-03T02:03:44;6.17;;;2.60;;
69207;SDS011;56321;47.662;8.878;2023-04-03T02:06:09;6.67;;;2.80;;
69207;SDS011;56321;47.662;8.878;2023-04-03T02:08:35;6.70;;;3.00;;
69207;SDS011;56321;47.662;8.878;2023-04-03T02:11:00;7.23;;;2.97;;
69207;SDS011;56321;47.662;8.878;2023-04-03T02:13:25;6.72;;;2.85;;
69207;SDS011;56321;47.662;8.878;2023-04-03T02:15:51;6.67;;;2.80;;
69207;SDS011;56321;47.662;8.878;2023-04-03T02:18:16;7.20;;;3.17;;
69207;SDS011;56321;47.662;8.878;2023-04-03T02:20:42;7.50;;;3.20;;
69207;SDS011;56321;47.662;8.878;2023-04-03T02:23:07;7.63;;;3.10;;
69207;SDS011;56321;47.662;8.878;2023-04-03T02:25:33;7.70;;;3.30;;
69207;SDS011;56321;47.662;8.878;2023-04-03T02:27:58;7.27;;;3.30;;
69207;SDS011;56321;47.662;8.878;2023-04-03T02:30:24;6.97;;;2.80;;
69207;SDS011;56321;47.662;8.878;2023-04-03T02:32:49;7.18;;;3.20;;
69207;SDS011;56321;47.662;8.878;2023-04-03T02:35:14;7.63;;;3.00;;
69207;SDS011;56321;47.662;8.878;2023-04-03T02:37:40;6.97;;;3.20;;
69207;SDS011;56321;47.662;8.878;2023-04-03T02:40:06;7.55;;;3.45;;
69207;SDS011;56321;47.662;8.878;2023-04-03T02:42:32;7.03;;;3.27;;
69207;SDS011;56321;47.662;8.878;2023-04-03T02:44:57;7.60;;;3.30;;
69207;SDS011;56321;47.662;8.878;2023-04-03T02:47:22;7.07;;;3.00;;
69207;SDS011;56321;47.662;8.878;2023-04-03T02:49:48;6.33;;;2.70;;
69207;SDS011;56321;47.662;8.878;2023-04-03T02:52:14;6.80;;;2.90;;
69207;SDS011;56321;47.662;8.878;2023-04-03T02:54:40;7.03;;;2.97;;
69207;SDS011;56321;47.662;8.878;2023-04-03T02:57:05;7.33;;;3.00;;
69207;SDS011;56321;47.662;8.878;2023-04-03T02:59:32;6.95;;;3.00;;
69207;SDS011;56321;47.662;8.878;2023-04-03T03:01:58;7.10;;;3.23;;
69207;SDS011;56321;47.662;8.878;2023-04-03T03:04:23;7.90;;;3.30;;
69207;SDS011;56321;47.662;8.878;2023-04-03T03:06:48;7.30;;;3.22;;
69207;SDS011;56321;47.662;8.878;2023-04-03T03:09:14;7.70;;;3.33;;
69207;SDS011;56321;47.662;8.878;2023-04-03T03:11:39;8.87;;;3.80;;
69207;SDS011;56321;47.662;8.878;2023-04-03T03:14:05;8.60;;;3.67;;
69207;SDS011;56321;47.662;8.878;2023-04-03T03:16:30;8.23;;;3.72;;
69207;SDS011;56321;47.662;8.878;2023-04-03T03:18:56;8.73;;;3.70;;
69207;SDS011;56321;47.662;8.878;2023-04-03T03:21:21;7.80;;;3.67;;
69207;SDS011;56321;47.662;8.878;2023-04-03T03:23:46;8.13;;;3.90;;
69207;SDS011;56321;47.662;8.878;2023-04-03T03:26:12;8.67;;;3.50;;
69207;SDS011;56321;47.662;8.878;2023-04-03T03:28:38;8.70;;;3.85;;
69207;SDS011;56321;47.662;8.878;2023-04-03T03:31:04;7.83;;;3.27;;
69207;SDS011;56321;47.662;8.878;2023-04-03T03:33:30;8.38;;;3.60;;
69207;SDS011;56321;47.662;8.878;2023-04-03T03:35:56;9.03;;;3.77;;
69207;SDS011;56321;47.662;8.878;2023-04-03T03:38:21;8.38;;;3.83;;
69207;SDS011;56321;47.662;8.878;2023-04-03T03:40:47;8.43;;;4.03;;
69207;SDS011;56321;47.662;8.878;2023-04-03T03:43:14;8.00;;;3.43;;
69207;SDS011;56321;47.662;8.878;2023-04-03T03:45:40;7.90;;;3.70;;
69207;SDS011;56321;47.662;8.878;2023-04-03T03:48:05;7.57;;;4.00;;
69207;SDS011;56321;47.662;8.878;2023-04-03T03:50:30;7.90;;;3.50;;
69207;SDS011;56321;47.662;8.878;2023-04-03T03:52:56;9.30;;;3.78;;
69207;SDS011;56321;47.662;8.878;2023-04-03T03:55:21;8.80;;;4.13;;
69207;SDS011;56321;47.662;8.878;2023-04-03T03:57:46;7.70;;;3.70;;
69207;SDS011;56321;47.662;8.878;2023-04-03T04:00:12;8.57;;;4.13;;
69207;SDS011;56321;47.662;8.878;2023-04-03T04:02:37;8.75;;;3.83;;
69207;SDS011;56321;47.662;8.878;2023-04-03T04:05:03;8.47;;;3.80;;
69207;SDS011;56321;47.662;8.878;2023-04-03T04:07:29;8.00;;;3.50;;
69207;SDS011;56321;47.662;8.878;2023-04-03T04:09:54;7.27;;;3.10;;
69207;SDS011;56321;47.662;8.878;2023-04-03T04:12:20;7.70;;;3.53;;
69207;SDS011;56321;47.662;8.878;2023-04-03T04:14:45;7.07;;;3.20;;
69207;SDS011;56321;47.662;8.878;2023-04-03T04:17:14;8.05;;;3.42;;
69207;SDS011;56321;47.662;8.878;2023-04-03T04:19:39;8.27;;;2.80;;
69207;SDS011;56321;47.662;8.878;2023-04-03T04:22:05;8.10;;;3.60;;
69207;SDS011;56321;47.662;8.878;2023-04-03T04:24:30;7.07;;;3.10;;
69207;SDS011;56321;47.662;8.878;2023-04-03T04:26:56;7.27;;;2.90;;
69207;SDS011;56321;47.662;8.878;2023-04-03T04:29:21;7.53;;;2.97;;
69207;SDS011;56321;47.662;8.878;2023-04-03T04:31:46;7.07;;;3.13;;
69207;SDS011;56321;47.662;8.878;2023-04-03T04:34:12;7.67;;;3.07;;
69207;SDS011;56321;47.662;8.878;2023-04-03T04:36:38;7.63;;;3.08;;
69207;SDS011;56321;47.662;8.878;2023-04-03T04:39:04;7.55;;;3.15;;
69207;SDS011;56321;47.662;8.878;2023-04-03T04:41:30;7.18;;;2.90;;
69207;SDS011;56321;47.662;8.878;2023-04-03T04:43:55;6.93;;;2.70;;
69207;SDS011;56321;47.662;8.878;2023-04-03T04:46:21;7.17;;;2.77;;
69207;SDS011;56321;47.662;8.878;2023-04-03T04:48:46;7.07;;;2.67;;
69207;SDS011;56321;47.662;8.878;2023-04-03T04:51:13;6.78;;;2.50;;
69207;SDS011;56321;47.662;8.878;2023-04-03T04:53:38;6.60;;;2.60;;
69207;SDS011;56321;47.662;8.878;2023-04-03T04:56:04;6.37;;;2.63;;
69207;SDS011;56321;47.662;8.878;2023-04-03T04:58:30;6.50;;;2.58;;
69207;SDS011;56321;47.662;8.878;2023-04-03T05:00:59;7.70;;;2.83;;
69207;SDS011;56321;47.662;8.878;2023-04-03T05:03:28;6.60;;;2.10;;
69207;SDS011;56321;47.662;8.878;2023-04-03T05:05:53;6.80;;;2.33;;
69207;SDS011;56321;47.662;8.878;2023-04-03T05:08:20;6.53;;;2.60;;
69207;SDS011;56321;47.662;8.878;2023-04-03T05:10:45;7.70;;;2.50;;
69207;SDS011;56321;47.662;8.878;2023-04-03T05:13:11;7.40;;;2.47;;
69207;SDS011;56321;47.662;8.878;2023-04-03T05:15:37;6.68;;;2.55;;
69207;SDS011;56321;47.662;8.878;2023-04-03T05:18:02;6.80;;;2.20;;
69207;SDS011;56321;47.662;8.878;2023-04-03T05:20:28;6.60;;;2.27;;
69207;SDS011;56321;47.662;8.878;2023-04-03T05:22:53;5.40;;;1.97;;
69207;SDS011;56321;47.662;8.878;2023-04-03T05:25:18;6.30;;;2.20;;
69207;SDS011;56321;47.662;8.878;2023-04-03T05:27:43;6.00;;;2.20;;
69207;SDS011;56321;47.662;8.878;2023-04-03T05:30:09;6.20;;;1.97;;
69207;SDS011;56321;47.662;8.878;2023-04-03T05:32:34;6.50;;;2.37;;
69207;SDS011;56321;47.662;8.878;2023-04-03T05:35:00;5.90;;;2.00;;
69207;SDS011;56321;47.662;8.878;2023-04-03T05:37:25;6.05;;;2.17;;
69207;SDS011;56321;47.662;8.878;2023-04-03T05:39:51;7.13;;;2.50;;
69207;SDS011;56321;47.662;8.878;2023-04-03T05:42:16;6.00;;;2.20;;
69207;SDS011;56321;47.662;8.878;2023-04-03T05:44:41;6.00;;;2.20;;
69207;SDS011;56321;47.662;8.878;2023-04-03T05:47:08;6.38;;;2.10;;
69207;SDS011;56321;47.662;8.878;2023-04-03T05:49:33;5.50;;;1.83;;
69207;SDS011;56321;47.662;8.878;2023-04-03T05:51:58;6.85;;;2.10;;
69207;SDS011;56321;47.662;8.878;2023-04-03T05:56:50;6.10;;;2.15;;
69207;SDS011;56321;47.662;8.878;2023-04-03T05:59:16;6.00;;;2.00;;
69207;SDS011;56321;47.662;8.878;2023-04-03T06:01:42;6.75;;;1.85;;
69207;SDS011;56321;47.662;8.878;2023-04-03T06:04:08;5.40;;;1.87;;
69207;SDS011;56321;47.662;8.878;2023-04-03T06:07:09;6.65;;;1.90;;
69207;SDS011;56321;47.662;8.878;2023-04-03T06:09:28;6.88;;;2.80;;
69207;SDS011;56321;47.662;8.878;2023-04-03T06:11:56;6.50;;;1.90;;
69207;SDS011;56321;47.662;8.878;2023-04-03T06:14:23;6.50;;;2.80;;
69207;SDS011;56321;47.662;8.878;2023-04-03T06:16:50;7.27;;;3.00;;
69207;SDS011;56321;47.662;8.878;2023-04-03T06:19:16;5.20;;;1.58;;
69207;SDS011;56321;47.662;8.878;2023-04-03T06:21:41;6.50;;;2.33;;
69207;SDS011;56321;47.662;8.878;2023-04-03T06:24:07;6.13;;;2.00;;
69207;SDS011;56321;47.662;8.878;2023-04-03T06:26:33;6.13;;;1.80;;
69207;SDS011;56321;47.662;8.878;2023-04-03T06:28:59;7.15;;;3.35;;
69207;SDS011;56321;47.662;8.878;2023-04-03T06:31:24;5.90;;;1.90;;
69207;SDS011;56321;47.662;8.878;2023-04-03T06:33:49;5.63;;;2.10;;
69207;SDS011;56321;47.662;8.878;2023-04-03T06:36:15;7.43;;;2.70;;
69207;SDS011;56321;47.662;8.878;2023-04-03T06:38:44;11.48;;;3.83;;
69207;SDS011;56321;47.662;8.878;2023-04-03T06:41:10;9.27;;;4.23;;
69207;SDS011;56321;47.662;8.878;2023-04-03T06:43:35;5.80;;;1.77;;
69207;SDS011;56321;47.662;8.878;2023-04-03T06:46:01;5.25;;;1.50;;
69207;SDS011;56321;47.662;8.878;2023-04-03T06:48:26;5.70;;;1.40;;
69207;SDS011;56321;47.662;8.878;2023-04-03T06:50:52;6.20;;;1.90;;
69207;SDS011;56321;47.662;8.878;2023-04-03T06:53:18;5.40;;;1.55;;
69207;SDS011;56321;47.662;8.878;2023-04-03T06:55:43;4.83;;;1.37;;
69207;SDS011;56321;47.662;8.878;2023-04-03T06:58:08;7.20;;;2.47;;
69207;SDS011;56321;47.662;8.878;2023-04-03T07:00:34;6.13;;;1.70;;
69207;SDS011;56321;47.662;8.878;2023-04-03T07:02:59;5.40;;;1.60;;
69207;SDS011;56321;47.662;8.878;2023-04-03T07:05:25;5.37;;;1.53;;
69207;SDS011;56321;47.662;8.878;2023-04-03T07:07:51;5.77;;;1.67;;
69207;SDS011;56321;47.662;8.878;2023-04-03T07:10:17;7.75;;;2.95;;
69207;SDS011;56321;47.662;8.878;2023-04-03T07:12:42;11.60;;;5.50;;
69207;SDS011;56321;47.662;8.878;2023-04-03T07:15:08;6.00;;;2.10;;
69207;SDS011;56321;47.662;8.878;2023-04-03T07:17:34;5.47;;;1.52;;
69207;SDS011;56321;47.662;8.878;2023-04-03T07:20:00;5.80;;;2.10;;
69207;SDS011;56321;47.662;8.878;2023-04-03T07:22:26;7.37;;;2.60;;
69207;SDS011;56321;47.662;8.878;2023-04-03T07:24:51;6.20;;;1.90;;
69207;SDS011;56321;47.662;8.878;2023-04-03T07:27:16;5.93;;;1.70;;
69207;SDS011;56321;47.662;8.878;2023-04-03T07:29:42;7.03;;;2.45;;
69207;SDS011;56321;47.662;8.878;2023-04-03T07:32:09;6.22;;;1.70;;
69207;SDS011;56321;47.662;8.878;2023-04-03T07:34:34;5.57;;;1.57;;
69207;SDS011;56321;47.662;8.878;2023-04-03T07:37:00;5.72;;;1.90;;
69207;SDS011;56321;47.662;8.878;2023-04-03T07:39:26;5.67;;;1.80;;
69207;SDS011;56321;47.662;8.878;2023-04-03T07:41:51;8.60;;;2.30;;
69207;SDS011;56321;47.662;8.878;2023-04-03T07:44:17;6.10;;;1.97;;
69207;SDS011;56321;47.662;8.878;2023-04-03T07:46:42;5.65;;;1.80;;
69207;SDS011;56321;47.662;8.878;2023-04-03T07:49:08;6.50;;;1.90;;
69207;SDS011;56321;47.662;8.878;2023-04-03T07:51:33;5.45;;;1.73;;
69207;SDS011;56321;47.662;8.878;2023-04-03T07:53:59;5.60;;;1.60;;
69207;SDS011;56321;47.662;8.878;2023-04-03T07:56:24;7.13;;;1.90;;
69207;SDS011;56321;47.662;8.878;2023-04-03T07:58:50;8.30;;;2.63;;
69207;SDS011;56321;47.662;8.878;2023-04-03T08:01:15;6.50;;;2.00;;
69207;SDS011;56321;47.662;8.878;2023-04-03T08:03:41;6.50;;;2.40;;
69207;SDS011;56321;47.662;8.878;2023-04-03T08:06:07;6.40;;;2.10;;
69207;SDS011;56321;47.662;8.878;2023-04-03T08:08:33;6.10;;;2.30;;
69207;SDS011;56321;47.662;8.878;2023-04-03T08:10:59;6.20;;;2.17;;
69207;SDS011;56321;47.662;8.878;2023-04-03T08:13:25;5.63;;;2.13;;
69207;SDS011;56321;47.662;8.878;2023-04-03T08:15:51;6.37;;;2.13;;
69207;SDS011;56321;47.662;8.878;2023-04-03T08:18:17;5.63;;;1.70;;
69207;SDS011;56321;47.662;8.878;2023-04-03T08:20:46;5.53;;;1.83;;
69207;SDS011;56321;47.662;8.878;2023-04-03T08:23:11;6.70;;;1.98;;
69207;SDS011;56321;47.662;8.878;2023-04-03T08:25:38;6.13;;;1.90;;
69207;SDS011;56321;47.662;8.878;2023-04-03T08:28:04;6.50;;;2.15;;
69207;SDS011;56321;47.662;8.878;2023-04-03T08:30:30;6.47;;;1.93;;
69207;SDS011;56321;47.662;8.878;2023-04-03T08:32:55;6.63;;;1.88;;
69207;SDS011;56321;47.662;8.878;2023-04-03T08:35:21;5.40;;;1.67;;
69207;SDS011;56321;47.662;8.878;2023-04-03T08:37:46;12.20;;;4.90;;
69207;SDS011;56321;47.662;8.878;2023-04-03T08:40:15;6.57;;;2.22;;
69207;SDS011;56321;47.662;8.878;2023-04-03T08:42:54;6.50;;;1.90;;
69207;SDS011;56321;47.662;8.878;2023-04-03T08:45:38;6.80;;;2.13;;
69207;SDS011;56321;47.662;8.878;2023-04-03T08:48:15;7.20;;;1.95;;
69207;SDS011;56321;47.662;8.878;2023-04-03T08:50:45;5.20;;;1.70;;
69207;SDS011;56321;47.662;8.878;2023-04-03T08:53:14;6.28;;;2.03;;
69207;SDS011;56321;47.662;8.878;2023-04-03T08:55:43;6.07;;;1.97;;
69207;SDS011;56321;47.662;8.878;2023-04-03T08:58:22;7.03;;;2.30;;
69207;SDS011;56321;47.662;8.878;2023-04-03T09:00:58;6.13;;;1.95;;
69207;SDS011;56321;47.662;8.878;2023-04-03T09:03:28;6.10;;;1.70;;
69207;SDS011;56321;47.662;8.878;2023-04-03T09:08:44;6.33;;;2.10;;
69207;SDS011;56321;47.662;8.878;2023-04-03T09:13:55;6.20;;;2.03;;
69207;SDS011;56321;47.662;8.878;2023-04-03T09:16:31;7.10;;;1.88;;
69207;SDS011;56321;47.662;8.878;2023-04-03T09:21:40;5.77;;;1.67;;
69207;SDS011;56321;47.662;8.878;2023-04-03T09:24:07;6.05;;;1.90;;
69207;SDS011;56321;47.662;8.878;2023-04-03T09:26:56;6.13;;;1.90;;
69207;SDS011;56321;47.662;8.878;2023-04-03T09:29:25;5.78;;;1.80;;
69207;SDS011;56321;47.662;8.878;2023-04-03T09:32:01;6.90;;;1.87;;
69207;SDS011;56321;47.662;8.878;2023-04-03T09:34:37;6.03;;;1.92;;
69207;SDS011;56321;47.662;8.878;2023-04-03T09:37:06;6.28;;;1.85;;
69207;SDS011;56321;47.662;8.878;2023-04-03T09:39:33;6.67;;;2.03;;
69207;SDS011;56321;47.662;8.878;2023-04-03T09:42:16;6.20;;;2.10;;
69207;SDS011;56321;47.662;8.878;2023-04-03T09:44:52;6.05;;;2.00;;
69207;SDS011;56321;47.662;8.878;2023-04-03T09:47:29;5.97;;;2.05;;
69207;SDS011;56321;47.662;8.878;2023-04-03T09:52:39;6.32;;;2.20;;
69207;SDS011;56321;47.662;8.878;2023-04-03T09:55:27;6.68;;;2.20;;
69207;SDS011;56321;47.662;8.878;2023-04-03T09:57:55;5.95;;;2.03;;
69207;SDS011;56321;47.662;8.878;2023-04-03T10:00:25;6.20;;;2.30;;
69207;SDS011;56321;47.662;8.878;2023-04-03T10:02:55;6.00;;;2.27;;
69207;SDS011;56321;47.662;8.878;2023-04-03T10:05:27;5.47;;;1.80;;
69207;SDS011;56321;47.662;8.878;2023-04-03T10:10:37;6.80;;;2.10;;
69207;SDS011;56321;47.662;8.878;2023-04-03T10:15:45;5.97;;;1.90;;
69207;SDS011;56321;47.662;8.878;2023-04-03T10:21:39;6.03;;;1.98;;
69207;SDS011;56321;47.662;8.878;2023-04-03T10:24:11;5.90;;;2.00;;
69207;SDS011;56321;47.662;8.878;2023-04-03T10:32:02;5.50;;;1.80;;
69207;SDS011;56321;47.662;8.878;2023-04-03T10:34:33;5.75;;;2.00;;
69207;SDS011;56321;47.662;8.878;2023-04-03T10:37:23;6.05;;;1.92;;
69207;SDS011;56321;47.662;8.878;2023-04-03T10:42:28;6.10;;;1.87;;
69207;SDS011;56321;47.662;8.878;2023-04-03T10:50:31;5.90;;;1.80;;
69207;SDS011;56321;47.662;8.878;2023-04-03T10:56:19;6.30;;;1.90;;
69207;SDS011;56321;47.662;8.878;2023-04-03T10:58:54;6.20;;;1.70;;
69207;SDS011;56321;47.662;8.878;2023-04-03T11:01:27;6.03;;;1.92;;
69207;SDS011;56321;47.662;8.878;2023-04-03T11:03:58;6.22;;;2.10;;
69207;SDS011;56321;47.662;8.878;2023-04-03T11:06:26;5.88;;;2.00;;
69207;SDS011;56321;47.662;8.878;2023-04-03T11:09:05;6.07;;;1.80;;
69207;SDS011;56321;47.662;8.878;2023-04-03T11:11:44;6.82;;;1.98;;
69207;SDS011;56321;47.662;8.878;2023-04-03T11:17:41;7.77;;;1.83;;
69207;SDS011;56321;47.662;8.878;2023-04-03T11:19:44;6.05;;;1.60;;
69207;SDS011;56321;47.662;8.878;2023-04-03T11:25:03;5.95;;;1.80;;
69207;SDS011;56321;47.662;8.878;2023-04-03T11:27:41;5.60;;;1.83;;
69207;SDS011;56321;47.662;8.878;2023-04-03T11:30:16;5.20;;;1.70;;
69207;SDS011;56321;47.662;8.878;2023-04-03T11:35:47;5.93;;;1.80;;
69207;SDS011;56321;47.662;8.878;2023-04-03T11:38:21;6.13;;;1.70;;
69207;SDS011;56321;47.662;8.878;2023-04-03T11:40:51;5.85;;;1.60;;
69207;SDS011;56321;47.662;8.878;2023-04-03T11:43:21;5.87;;;1.57;;
69207;SDS011;56321;47.662;8.878;2023-04-03T11:45:52;5.13;;;1.50;;
69207;SDS011;56321;47.662;8.878;2023-04-03T11:50:53;5.18;;;1.60;;
69207;SDS011;56321;47.662;8.878;2023-04-03T11:53:32;5.40;;;1.80;;
69207;SDS011;56321;47.662;8.878;2023-04-03T12:01:54;5.05;;;1.58;;
69207;SDS011;56321;47.662;8.878;2023-04-03T12:04:22;5.50;;;1.50;;
69207;SDS011;56321;47.662;8.878;2023-04-03T12:06:54;5.50;;;1.70;;
69207;SDS011;56321;47.662;8.878;2023-04-03T12:09:57;6.47;;;2.03;;
69207;SDS011;56321;47.662;8.878;2023-04-03T12:14:55;5.50;;;1.80;;
69207;SDS011;56321;47.662;8.878;2023-04-03T12:17:36;6.00;;;1.80;;
69207;SDS011;56321;47.662;8.878;2023-04-03T12:20:03;6.80;;;2.22;;
69207;SDS011;56321;47.662;8.878;2023-04-03T12:23:08;5.93;;;1.90;;
69207;SDS011;56321;47.662;8.878;2023-04-03T12:25:50;5.55;;;1.90;;
69207;SDS011;56321;47.662;8.878;2023-04-03T12:28:16;5.68;;;1.98;;
69207;SDS011;56321;47.662;8.878;2023-04-03T12:30:41;5.87;;;1.90;;
69207;SDS011;56321;47.662;8.878;2023-04-03T12:33:24;5.57;;;1.70;;
69207;SDS011;56321;47.662;8.878;2023-04-03T12:36:07;5.78;;;1.83;;
69207;SDS011;56321;47.662;8.878;2023-04-03T12:38:53;5.80;;;1.70;;
69207;SDS011;56321;47.662;8.878;2023-04-03T12:44:13;8.82;;;2.00;;
69207;SDS011;56321;47.662;8.878;2023-04-03T12:46:51;5.97;;;1.90;;
69207;SDS011;56321;47.662;8.878;2023-04-03T12:52:26;6.13;;;1.77;;
69207;SDS011;56321;47.662;8.878;2023-04-03T12:55:00;5.50;;;1.55;;
69207;SDS011;56321;47.662;8.878;2023-04-03T12:57:30;5.35;;;1.65;;
69207;SDS011;56321;47.662;8.878;2023-04-03T12:59:57;5.30;;;1.67;;
69207;SDS011;56321;47.662;8.878;2023-04-03T13:02:28;6.07;;;2.00;;
69207;SDS011;56321;47.662;8.878;2023-04-03T13:04:59;5.70;;;1.60;;
69207;SDS011;56321;47.662;8.878;2023-04-03T13:07:32;5.53;;;1.70;;
69207;SDS011;56321;47.662;8.878;2023-04-03T13:10:20;5.65;;;1.80;;
69207;SDS011;56321;47.662;8.878;2023-04-03T13:13:18;5.65;;;1.70;;
69207;SDS011;56321;47.662;8.878;2023-04-03T13:15:41;5.57;;;1.50;;
69207;SDS011;56321;47.662;8.878;2023-04-03T13:18:27;5.70;;;1.70;;
69207;SDS011;56321;47.662;8.878;2023-04-03T13:20:57;6.10;;;2.17;;
69207;SDS011;56321;47.662;8.878;2023-04-03T13:23:26;6.38;;;1.75;;
69207;SDS011;56321;47.662;8.878;2023-04-03T13:25:52;5.03;;;1.50;;
69207;SDS011;56321;47.662;8.878;2023-04-03T13:28:22;5.77;;;1.50;;
69207;SDS011;56321;47.662;8.878;2023-04-03T13:33:41;5.05;;;1.30;;
69207;SDS011;56321;47.662;8.878;2023-04-03T13:36:17;6.15;;;1.92;;
69207;SDS011;56321;47.662;8.878;2023-04-03T13:38:43;5.15;;;1.50;;
69207;SDS011;56321;47.662;8.878;2023-04-03T13:41:23;5.10;;;1.30;;
69207;SDS011;56321;47.662;8.878;2023-04-03T13:43:51;5.15;;;1.50;;
69207;SDS011;56321;47.662;8.878;2023-04-03T13:48:46;5.30;;;1.60;;
69207;SDS011;56321;47.662;8.878;2023-04-03T13:53:48;5.55;;;1.77;;
69207;SDS011;56321;47.662;8.878;2023-04-03T13:56:39;7.13;;;1.90;;
69207;SDS011;56321;47.662;8.878;2023-04-03T14:01:50;6.82;;;1.98;;
69207;SDS011;56321;47.662;8.878;2023-04-03T14:04:23;5.65;;;2.00;;
69207;SDS011;56321;47.662;8.878;2023-04-03T14:06:51;5.50;;;1.80;;
69207;SDS011;56321;47.662;8.878;2023-04-03T14:09:17;5.80;;;1.90;;
69207;SDS011;56321;47.662;8.878;2023-04-03T14:11:45;5.75;;;2.00;;
69207;SDS011;56321;47.662;8.878;2023-04-03T14:14:15;6.28;;;2.10;;
69207;SDS011;56321;47.662;8.878;2023-04-03T14:16:49;7.03;;;2.10;;
69207;SDS011;56321;47.662;8.878;2023-04-03T14:19:20;5.60;;;1.80;;
69207;SDS011;56321;47.662;8.878;2023-04-03T14:21:51;5.30;;;1.92;;
69207;SDS011;56321;47.662;8.878;2023-04-03T14:24:18;6.43;;;1.90;;
69207;SDS011;56321;47.662;8.878;2023-04-03T14:26:44;6.03;;;2.00;;
69207;SDS011;56321;47.662;8.878;2023-04-03T14:29:11;6.43;;;2.00;;
69207;SDS011;56321;47.662;8.878;2023-04-03T14:31:38;5.80;;;1.80;;
69207;SDS011;56321;47.662;8.878;2023-04-03T14:34:04;6.70;;;2.05;;
69207;SDS011;56321;47.662;8.878;2023-04-03T14:36:30;7.57;;;2.00;;
69207;SDS011;56321;47.662;8.878;2023-04-03T14:38:59;5.70;;;1.83;;
69207;SDS011;56321;47.662;8.878;2023-04-03T14:41:26;6.68;;;1.98;;
69207;SDS011;56321;47.662;8.878;2023-04-03T14:43:52;6.78;;;1.80;;
69207;SDS011;56321;47.662;8.878;2023-04-03T14:46:24;5.63;;;1.80;;
69207;SDS011;56321;47.662;8.878;2023-04-03T14:48:53;6.50;;;2.10;;
69207;SDS011;56321;47.662;8.878;2023-04-03T14:51:19;6.30;;;1.92;;
69207;SDS011;56321;47.662;8.878;2023-04-03T14:53:45;5.50;;;1.90;;
69207;SDS011;56321;47.662;8.878;2023-04-03T14:56:11;6.60;;;2.20;;
69207;SDS011;56321;47.662;8.878;2023-04-03T14:58:37;5.43;;;1.80;;
69207;SDS011;56321;47.662;8.878;2023-04-03T15:01:03;5.83;;;2.03;;
69207;SDS011;56321;47.662;8.878;2023-04-03T15:03:28;6.53;;;1.83;;
69207;SDS011;56321;47.662;8.878;2023-04-03T15:05:54;8.17;;;3.20;;
69207;SDS011;56321;47.662;8.878;2023-04-03T15:08:23;5.75;;;1.90;;
69207;SDS011;56321;47.662;8.878;2023-04-03T15:10:51;6.03;;;2.00;;
69207;SDS011;56321;47.662;8.878;2023-04-03T15:13:21;5.40;;;1.70;;
69207;SDS011;56321;47.662;8.878;2023-04-03T15:15:47;6.00;;;2.10;;
69207;SDS011;56321;47.662;8.878;2023-04-03T15:18:15;5.60;;;1.70;;
69207;SDS011;56321;47.662;8.878;2023-04-03T15:20:43;5.65;;;1.58;;
69207;SDS011;56321;47.662;8.878;2023-04-03T15:23:10;5.67;;;1.87;;
69207;SDS011;56321;47.662;8.878;2023-04-03T15:25:38;5.65;;;1.92;;
69207;SDS011;56321;47.662;8.878;2023-04-03T15:28:04;6.32;;;2.25;;
69207;SDS011;56321;47.662;8.878;2023-04-03T15:30:30;5.50;;;1.80;;
69207;SDS011;56321;47.662;8.878;2023-04-03T15:32:56;8.17;;;2.93;;
69207;SDS011;56321;47.662;8.878;2023-04-03T15:35:21;7.60;;;3.00;;
69207;SDS011;56321;47.662;8.878;2023-04-03T15:37:46;6.67;;;2.00;;
69207;SDS011;56321;47.662;8.878;2023-04-03T15:40:13;5.65;;;1.60;;
69207;SDS011;56321;47.662;8.878;2023-04-03T15:42:38;5.47;;;1.75;;
69207;SDS011;56321;47.662;8.878;2023-04-03T15:45:04;7.23;;;1.90;;
69207;SDS011;56321;47.662;8.878;2023-04-03T15:47:30;6.07;;;2.40;;
69207;SDS011;56321;47.662;8.878;2023-04-03T15:49:55;6.80;;;3.03;;
69207;SDS011;56321;47.662;8.878;2023-04-03T15:52:21;5.77;;;2.00;;
69207;SDS011;56321;47.662;8.878;2023-04-03T15:54:46;5.55;;;1.77;;
69207;SDS011;56321;47.662;8.878;2023-04-03T15:57:12;6.43;;;2.10;;
69207;SDS011;56321;47.662;8.878;2023-04-03T15:59:37;6.43;;;1.93;;
69207;SDS011;56321;47.662;8.878;2023-04-03T16:02:03;7.07;;;2.00;;
69207;SDS011;56321;47.662;8.878;2023-04-03T16:04:31;6.75;;;1.92;;
69207;SDS011;56321;47.662;8.878;2023-04-03T16:07:00;6.55;;;2.28;;
69207;SDS011;56321;47.662;8.878;2023-04-03T16:09:26;6.50;;;2.30;;
69207;SDS011;56321;47.662;8.878;2023-04-03T16:11:51;8.53;;;3.17;;
69207;SDS011;56321;47.662;8.878;2023-04-03T16:14:17;8.17;;;3.33;;
69207;SDS011;56321;47.662;8.878;2023-04-03T16:16:42;6.87;;;2.73;;